createdAt,value
2022-12-31T00:01:50.993Z,0.36
2022-12-31T00:06:57.280Z,0.89
2022-12-31T00:12:03.723Z,0.32
2022-12-31T00:17:11.082Z,0.25
2022-12-31T00:22:17.571Z,0.37
2022-12-31T00:27:23.865Z,0.26
2022-12-31T00:32:30.182Z,0.40
2022-12-31T00:37:40.471Z,0.67
2022-12-31T00:42:45.406Z,0.18
2022-12-31T00:47:51.673Z,0.46
2022-12-31T00:52:58.144Z,0.43
2022-12-31T00:58:04.476Z,0.19
2022-12-31T01:03:10.904Z,0.33
2022-12-31T01:08:17.056Z,0.05
2022-12-31T01:13:23.421Z,0.03
2022-12-31T01:18:29.791Z,0.10
2022-12-31T01:23:38.732Z,0.33
2022-12-31T01:28:44.840Z,0.17
2022-12-31T01:33:51.223Z,0.66
2022-12-31T01:38:59.362Z,0.31
2022-12-31T01:44:06.773Z,0.07
2022-12-31T01:49:13.013Z,0.00
2022-12-31T01:54:19.399Z,0.27
2022-12-31T01:59:25.612Z,0.06
2022-12-31T02:04:31.898Z,0.06
2022-12-31T02:09:38.209Z,0.18
2022-12-31T02:14:44.568Z,0.07
2022-12-31T02:19:50.819Z,0.53
2022-12-31T02:24:57.366Z,0.10
2022-12-31T02:30:03.660Z,0.16
2022-12-31T02:35:10.395Z,0.06
2022-12-31T02:40:16.701Z,0.08
2022-12-31T02:45:23.107Z,0.06
2022-12-31T02:50:31.154Z,0.23
2022-12-31T02:55:37.487Z,0.05
2022-12-31T03:00:44.289Z,0.41
2022-12-31T03:05:50.734Z,0.26
2022-12-31T03:10:58.428Z,0.06
2022-12-31T03:16:04.090Z,0.26
2022-12-31T03:21:10.443Z,0.08
2022-12-31T03:26:16.705Z,0.22
2022-12-31T03:31:22.959Z,0.02
2022-12-31T03:36:29.260Z,0.30
2022-12-31T03:41:35.578Z,0.17
2022-12-31T03:46:42.025Z,0.06
2022-12-31T03:51:48.421Z,0.02
2022-12-31T03:56:59.929Z,0.03
2022-12-31T04:02:02.001Z,0.42
2022-12-31T04:07:08.281Z,0.30
2022-12-31T04:12:14.523Z,0.03
2022-12-31T04:17:20.866Z,0.51
2022-12-31T04:22:27.095Z,0.07
2022-12-31T04:27:33.471Z,0.27
2022-12-31T04:32:39.912Z,0.13
2022-12-31T04:37:48.125Z,0.01
2022-12-31T04:42:54.367Z,0.09
2022-12-31T04:48:02.394Z,0.57
2022-12-31T04:53:12.347Z,0.29
2022-12-31T04:58:18.623Z,0.21
2022-12-31T05:03:25.128Z,0.28
2022-12-31T05:08:31.311Z,0.35
2022-12-31T05:13:37.840Z,0.30
2022-12-31T05:18:44.194Z,0.35
2022-12-31T05:23:51.515Z,1.01
2022-12-31T05:28:57.888Z,0.24
2022-12-31T05:34:04.174Z,0.20
2022-12-31T05:39:10.447Z,0.52
2022-12-31T05:44:16.657Z,0.76
2022-12-31T05:49:24.409Z,0.62
2022-12-31T05:54:30.923Z,0.54
2022-12-31T05:59:37.495Z,0.92
2022-12-31T06:04:43.837Z,0.51
2022-12-31T06:09:51.656Z,0.62
2022-12-31T06:14:57.943Z,0.58
2022-12-31T06:20:10.535Z,0.46
2022-12-31T06:25:10.069Z,0.60
2022-12-31T06:30:16.354Z,0.79
2022-12-31T06:35:22.810Z,0.46
2022-12-31T06:40:29.145Z,0.61
2022-12-31T06:45:35.493Z,1.65
2022-12-31T06:50:42.579Z,0.47
2022-12-31T06:55:48.812Z,1.24
2022-12-31T07:00:56.822Z,0.84
2022-12-31T07:06:03.594Z,0.94
2022-12-31T07:11:11.362Z,1.03
2022-12-31T07:16:16.775Z,0.75
2022-12-31T07:21:23.062Z,1.24
2022-12-31T07:26:29.361Z,0.95
2022-12-31T07:31:35.698Z,2.66
2022-12-31T07:36:43.019Z,0.41
2022-12-31T07:41:49.418Z,0.68
2022-12-31T07:46:55.861Z,0.46
2022-12-31T07:52:02.135Z,0.60
2022-12-31T07:57:08.451Z,0.89
2022-12-31T08:02:14.958Z,0.57
2022-12-31T08:07:21.176Z,1.00
2022-12-31T08:12:27.605Z,0.77
2022-12-31T08:17:33.808Z,1.33
2022-12-31T08:22:40.336Z,1.13
2022-12-31T08:27:46.605Z,1.26
2022-12-31T08:32:55.880Z,0.94
2022-12-31T08:38:02.266Z,0.99
2022-12-31T08:43:08.866Z,0.91
2022-12-31T08:48:17.868Z,0.62
2022-12-31T08:53:23.211Z,0.75
2022-12-31T08:58:29.616Z,0.69
2022-12-31T09:03:36.973Z,0.60
2022-12-31T09:08:43.293Z,1.52
2022-12-31T09:13:50.741Z,1.48
2022-12-31T09:18:57.036Z,1.22
2022-12-31T09:24:08.958Z,2.15
2022-12-31T09:29:09.100Z,0.99
2022-12-31T09:34:15.460Z,1.07
2022-12-31T09:39:21.864Z,1.97
2022-12-31T09:44:28.892Z,1.20
2022-12-31T09:49:36.250Z,0.94
2022-12-31T09:54:43.969Z,1.04
2022-12-31T09:59:50.369Z,1.45
2022-12-31T10:04:56.750Z,0.81
2022-12-31T10:10:02.977Z,1.27
2022-12-31T10:15:09.374Z,0.99
2022-12-31T10:20:15.679Z,1.05
2022-12-31T10:25:21.959Z,1.49
2022-12-31T10:30:27.833Z,2.21
2022-12-31T10:35:35.959Z,1.27
2022-12-31T10:40:41.621Z,2.43
2022-12-31T10:45:49.771Z,1.09
2022-12-31T10:50:56.069Z,1.61
2022-12-31T10:56:02.274Z,2.14
2022-12-31T11:01:08.561Z,2.25
2022-12-31T11:06:15.241Z,1.58
2022-12-31T11:11:21.661Z,0.75
2022-12-31T11:16:29.330Z,2.03
2022-12-31T11:21:39.471Z,1.97
2022-12-31T11:26:42.380Z,1.33
2022-12-31T11:31:48.686Z,1.06
2022-12-31T11:36:55.252Z,1.36
2022-12-31T11:42:02.854Z,0.98
2022-12-31T11:47:09.301Z,1.25
2022-12-31T11:52:19.644Z,4.22
2022-12-31T11:57:21.581Z,1.99
2022-12-31T12:02:30.451Z,1.37
2022-12-31T12:07:40.711Z,3.17
2022-12-31T12:12:46.294Z,1.22
2022-12-31T12:17:52.627Z,1.39
2022-12-31T12:22:58.944Z,2.85
2022-12-31T12:28:06.586Z,1.13
2022-12-31T12:33:11.891Z,2.08
2022-12-31T12:38:18.350Z,0.98
2022-12-31T12:43:24.531Z,1.52
2022-12-31T12:48:32.016Z,2.11
2022-12-31T12:53:39.093Z,2.10
2022-12-31T12:58:45.390Z,3.38
2022-12-31T13:04:23.739Z,1.93
2022-12-31T13:08:57.586Z,2.00
2022-12-31T13:14:05.351Z,1.61
2022-12-31T13:19:11.507Z,1.43
2022-12-31T13:24:17.851Z,1.86
2022-12-31T13:29:24.317Z,2.37
2022-12-31T13:34:30.625Z,1.58
2022-12-31T13:39:38.311Z,2.03
2022-12-31T13:44:44.429Z,1.91
2022-12-31T13:49:50.929Z,0.76
2022-12-31T13:54:57.231Z,1.20
2022-12-31T14:00:03.655Z,2.88
2022-12-31T14:05:11.007Z,2.35
2022-12-31T14:10:19.877Z,1.83
2022-12-31T14:15:25.958Z,1.27
2022-12-31T14:20:32.317Z,3.78
2022-12-31T14:25:38.715Z,1.66
2022-12-31T14:30:45.057Z,2.99
2022-12-31T14:35:52.532Z,1.69
2022-12-31T14:40:58.645Z,2.38
2022-12-31T14:46:05.756Z,1.68
2022-12-31T14:51:12.068Z,3.02
2022-12-31T14:56:18.431Z,3.32
2022-12-31T15:01:27.524Z,2.67
2022-12-31T15:06:33.133Z,2.50
2022-12-31T15:11:39.765Z,1.48
2022-12-31T15:16:46.083Z,2.34
2022-12-31T15:21:52.458Z,1.32
2022-12-31T15:26:58.700Z,1.30
2022-12-31T15:32:05.250Z,1.50
2022-12-31T15:37:11.581Z,1.53
2022-12-31T15:42:37.360Z,1.38
2022-12-31T15:47:24.769Z,1.12
2022-12-31T15:52:32.390Z,1.96
2022-12-31T15:57:38.740Z,1.20
2022-12-31T16:02:45.119Z,0.85
2022-12-31T16:07:51.449Z,1.55
2022-12-31T16:12:58.047Z,1.40
2022-12-31T16:18:04.378Z,3.11
2022-12-31T16:23:10.943Z,1.05
2022-12-31T16:28:18.700Z,2.14
2022-12-31T16:33:25.070Z,0.92
2022-12-31T16:38:31.348Z,1.72
2022-12-31T16:43:37.589Z,2.75
2022-12-31T16:48:44.075Z,1.85
2022-12-31T16:53:50.371Z,1.61
2022-12-31T16:58:56.659Z,1.45
2022-12-31T17:04:03.057Z,2.03
2022-12-31T17:09:09.485Z,1.37
2022-12-31T17:14:15.893Z,1.80
2022-12-31T17:19:22.289Z,1.49
2022-12-31T17:24:28.726Z,1.67
2022-12-31T17:29:35.263Z,1.69
2022-12-31T17:34:42.929Z,3.43
2022-12-31T17:39:49.536Z,3.81
2022-12-31T17:44:55.915Z,2.38
2022-12-31T17:50:02.394Z,2.08
2022-12-31T17:55:09.030Z,4.79
2022-12-31T18:00:15.438Z,3.06
2022-12-31T18:05:24.095Z,1.41
2022-12-31T18:10:30.369Z,2.44
2022-12-31T18:15:36.872Z,4.47
2022-12-31T18:20:44.791Z,3.57
2022-12-31T18:25:52.366Z,4.30
2022-12-31T18:30:58.787Z,2.41
2022-12-31T18:36:09.851Z,2.78
2022-12-31T18:41:11.835Z,1.72
2022-12-31T18:46:22.492Z,2.40
2022-12-31T18:51:32.039Z,1.99
2022-12-31T18:56:33.636Z,2.42
2022-12-31T19:01:40.130Z,2.03
2022-12-31T19:06:46.322Z,5.66
2022-12-31T19:11:52.677Z,1.94
2022-12-31T19:22:04.495Z,3.10
2022-12-31T19:27:10.739Z,2.38
2022-12-31T19:32:17.040Z,2.16
2022-12-31T19:37:23.426Z,2.12
2022-12-31T19:42:29.800Z,2.22
2022-12-31T19:47:36.134Z,3.69
2022-12-31T19:52:42.761Z,3.48
2022-12-31T19:57:49.138Z,2.04
2022-12-31T20:02:56.495Z,3.70
2022-12-31T20:08:02.213Z,4.80
2022-12-31T20:13:08.601Z,1.99
2022-12-31T20:18:15.043Z,3.17
2022-12-31T20:23:21.451Z,2.20
2022-12-31T20:28:27.854Z,2.25
2022-12-31T20:33:34.258Z,2.10
2022-12-31T20:38:42.270Z,2.14
2022-12-31T20:43:48.724Z,2.10
2022-12-31T20:48:54.988Z,2.32
2022-12-31T20:54:04.641Z,2.70
2022-12-31T20:59:09.868Z,3.36
2022-12-31T21:04:16.482Z,2.48
2022-12-31T21:09:26.304Z,2.42
2022-12-31T21:14:22.627Z,1.94
2022-12-31T21:19:30.757Z,2.24
2022-12-31T21:24:37.137Z,2.08
2022-12-31T21:30:17.215Z,3.45
2022-12-31T21:35:23.106Z,3.62
2022-12-31T21:40:00.798Z,2.17
2022-12-31T21:45:07.188Z,1.74
2022-12-31T21:50:14.657Z,1.67
2022-12-31T21:55:20.694Z,2.14
2022-12-31T22:00:40.932Z,3.28
2022-12-31T22:05:34.368Z,3.99
2022-12-31T22:10:48.727Z,2.35
2022-12-31T22:15:47.419Z,2.26
2022-12-31T22:20:53.784Z,4.03
2022-12-31T22:26:00.160Z,1.54
2022-12-31T22:31:06.387Z,3.49
2022-12-31T22:36:12.710Z,2.17
2022-12-31T22:41:19.175Z,3.70
2022-12-31T22:46:26.877Z,2.13
2022-12-31T22:51:58.709Z,5.79
2022-12-31T22:56:39.115Z,1.67
2022-12-31T23:01:45.611Z,4.95
2022-12-31T23:06:53.172Z,30.16
2022-12-31T23:12:01.147Z,11.01
2022-12-31T23:17:29.610Z,16.70
2022-12-31T23:22:13.279Z,22.65
2022-12-31T23:27:19.679Z,17.31
2022-12-31T23:32:27.180Z,13.11
2022-12-31T23:37:33.204Z,21.88
2022-12-31T23:42:41.164Z,10.45
2022-12-31T23:47:49.264Z,12.76
2022-12-31T23:52:55.521Z,9.02
2022-12-31T23:58:03.176Z,8.01
